Time;durP1;ratioP1;P1;durP2;ratioP2;P2;SDS_P1;SDS_P2;PMS_P1;PMS_P2;Temp;Humidity;BMP_temperature;BMP_pressure;BME280_temperature;BME280_humidity;BME280_pressure;Samples;Min_cycle;Max_cycle;Signal;HPM_P1;HPM_P2
2023/03/09 00:02:12;;;;;;;19.65;11.13;;;;;;;;;;5054226;28;20100;-74
2023/03/09 00:04:38;;;;;;;25.38;10.95;;;;;;;;;;5054273;28;20379;-74
2023/03/09 00:07:04;;;;;;;22.75;11.02;;;;;;;;;;5054128;28;20017;-73
2023/03/09 00:09:30;;;;;;;19.50;10.88;;;;;;;;;;5054153;28;20021;-73
2023/03/09 00:11:56;;;;;;;19.05;10.50;;;;;;;;;;5052636;28;20498;-73
2023/03/09 00:14:24;;;;;;;25.20;11.10;;;;;;;;;;5054042;28;20032;-72
2023/03/09 00:16:50;;;;;;;23.10;10.98;;;;;;;;;;5053953;28;20021;-75
2023/03/09 00:19:20;;;;;;;20.85;10.02;;;;;;;;;;5054053;28;20029;-73
2023/03/09 00:21:51;;;;;;;19.10;9.98;;;;;;;;;;5053805;28;20111;-72
2023/03/09 00:24:18;;;;;;;16.67;9.73;;;;;;;;;;5053995;28;20025;-73
2023/03/09 00:26:48;;;;;;;20.05;10.68;;;;;;;;;;5053768;28;20063;-72
2023/03/09 00:29:14;;;;;;;17.63;9.63;;;;;;;;;;5053846;28;20463;-74
2023/03/09 00:31:40;;;;;;;18.02;9.38;;;;;;;;;;5053735;28;20113;-75
2023/03/09 00:34:07;;;;;;;19.40;9.85;;;;;;;;;;5053464;28;20056;-74
2023/03/09 00:36:33;;;;;;;16.75;9.45;;;;;;;;;;5053635;28;20025;-73
2023/03/09 00:38:59;;;;;;;19.35;9.88;;;;;;;;;;5053732;28;20021;-74
2023/03/09 00:41:30;;;;;;;16.50;8.90;;;;;;;;;;5053475;28;20021;-73
2023/03/09 00:43:56;;;;;;;15.40;9.30;;;;;;;;;;5053255;28;20033;-74
2023/03/09 00:46:22;;;;;;;22.45;9.82;;;;;;;;;;5053512;28;20029;-73
2023/03/09 00:48:49;;;;;;;18.45;9.27;;;;;;;;;;5053371;28;20032;-74
2023/03/09 00:51:15;;;;;;;16.77;9.55;;;;;;;;;;5053479;28;20485;-73
2023/03/09 00:53:41;;;;;;;24.13;9.40;;;;;;;;;;5053110;28;20033;-74
2023/03/09 00:56:08;;;;;;;18.85;9.18;;;;;;;;;;5053108;28;20032;-75
2023/03/09 00:58:35;;;;;;;20.88;9.30;;;;;;;;;;5053198;28;20017;-72
2023/03/09 01:01:01;;;;;;;17.60;8.68;;;;;;;;;;5050004;28;20470;-73
2023/03/09 01:03:27;;;;;;;17.52;9.32;;;;;;;;;;5049595;28;20116;-74
2023/03/09 01:05:55;;;;;;;15.60;9.13;;;;;;;;;;5052897;28;20029;-73
2023/03/09 01:08:21;;;;;;;15.93;8.45;;;;;;;;;;5052988;28;20116;-73
2023/03/09 01:10:47;;;;;;;15.30;8.82;;;;;;;;;;5052990;28;20060;-73
2023/03/09 01:13:13;;;;;;;18.27;8.35;;;;;;;;;;5052417;28;20479;-74
2023/03/09 01:15:39;;;;;;;22.58;9.00;;;;;;;;;;5052892;28;20029;-73
2023/03/09 01:18:05;;;;;;;17.95;8.98;;;;;;;;;;5053016;28;20020;-74
2023/03/09 01:20:31;;;;;;;15.77;8.73;;;;;;;;;;5054275;28;20428;-73
2023/03/09 01:22:57;;;;;;;13.77;8.27;;;;;;;;;;5059015;28;20060;-72
2023/03/09 01:25:23;;;;;;;15.32;8.20;;;;;;;;;;5068053;28;20036;-72
2023/03/09 01:27:49;;;;;;;16.08;7.68;;;;;;;;;;5066927;28;20029;-72
2023/03/09 01:30:15;;;;;;;16.75;8.65;;;;;;;;;;5064772;28;20112;-72
2023/03/09 01:32:41;;;;;;;13.98;8.13;;;;;;;;;;5053571;28;20025;-73
2023/03/09 01:35:07;;;;;;;14.68;7.38;;;;;;;;;;5052540;28;20025;-74
2023/03/09 01:37:33;;;;;;;13.82;8.38;;;;;;;;;;5052402;28;20493;-74
2023/03/09 01:39:59;;;;;;;17.27;7.82;;;;;;;;;;5052522;28;20429;-73
2023/03/09 01:42:25;;;;;;;12.98;7.70;;;;;;;;;;5052342;28;20061;-74
2023/03/09 01:45:12;;;;;;;14.07;7.03;;;;;;;;;;5052170;28;20066;-73
2023/03/09 01:47:38;;;;;;;16.13;7.65;;;;;;;;;;5052353;28;20021;-73
2023/03/09 01:50:05;;;;;;;13.48;7.47;;;;;;;;;;5052220;28;20024;-74
2023/03/09 01:52:32;;;;;;;15.20;7.45;;;;;;;;;;5051855;28;20036;-73
2023/03/09 01:55:03;;;;;;;14.00;7.18;;;;;;;;;;5052307;28;20382;-73
2023/03/09 01:57:32;;;;;;;16.40;7.20;;;;;;;;;;5051953;28;20467;-74
2023/03/09 02:00:05;;;;;;;17.45;7.68;;;;;;;;;;5052140;28;20017;-73
2023/03/09 02:02:33;;;;;;;11.52;7.45;;;;;;;;;;5052400;28;20028;-72
2023/03/09 02:05:03;;;;;;;16.92;7.93;;;;;;;;;;5051952;28;20024;-72
2023/03/09 02:07:29;;;;;;;16.45;7.57;;;;;;;;;;5051926;28;20024;-72
2023/03/09 02:10:02;;;;;;;20.42;8.05;;;;;;;;;;5051901;28;20031;-72
2023/03/09 02:12:29;;;;;;;14.35;7.93;;;;;;;;;;5051495;28;20059;-72
2023/03/09 02:14:55;;;;;;;18.00;8.60;;;;;;;;;;5051880;28;20029;-73
2023/03/09 02:17:22;;;;;;;15.15;7.53;;;;;;;;;;5051737;28;20022;-73
2023/03/09 02:20:00;;;;;;;16.10;7.70;;;;;;;;;;5052014;28;20017;-72
2023/03/09 02:22:26;;;;;;;15.50;7.90;;;;;;;;;;5051634;28;20033;-72
2023/03/09 02:25:01;;;;;;;15.40;8.02;;;;;;;;;;5051745;28;20021;-72
2023/03/09 02:27:28;;;;;;;17.35;7.97;;;;;;;;;;5051616;28;20056;-72
2023/03/09 02:29:54;;;;;;;17.98;9.18;;;;;;;;;;5050694;28;20153;-73
2023/03/09 02:32:20;;;;;;;15.57;8.50;;;;;;;;;;5051330;28;20078;-73
2023/03/09 02:34:46;;;;;;;14.27;8.25;;;;;;;;;;5053003;28;20096;-72
2023/03/09 02:37:22;;;;;;;20.70;8.85;;;;;;;;;;5055822;28;20147;-72
2023/03/09 02:39:49;;;;;;;19.80;9.30;;;;;;;;;;5055895;28;20021;-72
2023/03/09 02:42:17;;;;;;;18.73;9.57;;;;;;;;;;5055487;28;20044;-72
2023/03/09 02:44:43;;;;;;;17.77;9.02;;;;;;;;;;5055530;28;20031;-73
2023/03/09 02:47:10;;;;;;;16.08;8.73;;;;;;;;;;5055611;28;20475;-72
2023/03/09 02:49:36;;;;;;;14.00;8.93;;;;;;;;;;5055777;28;20024;-74
2023/03/09 02:52:02;;;;;;;16.90;9.70;;;;;;;;;;5055332;28;20506;-73
2023/03/09 02:54:28;;;;;;;18.45;9.40;;;;;;;;;;5055476;28;20103;-74
2023/03/09 02:56:54;;;;;;;20.38;9.50;;;;;;;;;;5055276;28;20391;-73
2023/03/09 02:59:20;;;;;;;19.15;9.02;;;;;;;;;;5055532;28;20025;-72
2023/03/09 03:01:46;;;;;;;17.80;9.07;;;;;;;;;;5055131;28;20506;-72
2023/03/09 03:04:12;;;;;;;21.02;9.70;;;;;;;;;;5055291;28;20040;-73
2023/03/09 03:06:39;;;;;;;17.95;10.13;;;;;;;;;;5055102;28;20486;-73
2023/03/09 03:09:05;;;;;;;17.58;10.20;;;;;;;;;;5055409;28;20032;-73
2023/03/09 03:11:31;;;;;;;16.52;9.63;;;;;;;;;;5056794;28;20028;-73
2023/03/09 03:13:57;;;;;;;18.65;9.32;;;;;;;;;;5056614;28;20029;-73
2023/03/09 03:16:23;;;;;;;16.58;9.60;;;;;;;;;;5056553;28;20028;-73
2023/03/09 03:18:49;;;;;;;21.52;9.50;;;;;;;;;;5057203;28;20043;-73
2023/03/09 03:21:17;;;;;;;17.17;9.00;;;;;;;;;;5056299;28;20017;-73
2023/03/09 03:23:43;;;;;;;20.45;9.27;;;;;;;;;;5058043;28;20082;-72
2023/03/09 03:26:09;;;;;;;15.18;9.55;;;;;;;;;;5057232;28;20029;-73
2023/03/09 03:28:35;;;;;;;21.92;10.00;;;;;;;;;;5054916;28;20052;-73
2023/03/09 03:31:02;;;;;;;17.02;9.55;;;;;;;;;;5054875;28;20098;-73
2023/03/09 03:33:28;;;;;;;23.55;9.82;;;;;;;;;;5054665;28;20028;-73
2023/03/09 03:35:56;;;;;;;18.25;10.50;;;;;;;;;;5054682;28;20025;-71
2023/03/09 03:38:22;;;;;;;20.02;10.10;;;;;;;;;;5053557;28;20025;-71
2023/03/09 03:40:48;;;;;;;19.80;10.45;;;;;;;;;;5054837;28;20021;-70
2023/03/09 03:43:14;;;;;;;17.95;9.75;;;;;;;;;;5051843;28;20398;-71
2023/03/09 03:45:40;;;;;;;23.05;9.85;;;;;;;;;;5054224;28;20035;-71
2023/03/09 03:48:06;;;;;;;19.70;10.60;;;;;;;;;;5054301;28;20554;-71
2023/03/09 03:50:32;;;;;;;15.40;9.27;;;;;;;;;;5054416;28;20496;-72
2023/03/09 03:52:58;;;;;;;17.88;10.50;;;;;;;;;;5054250;28;20061;-71
2023/03/09 03:55:24;;;;;;;23.88;10.73;;;;;;;;;;5054125;28;20024;-72
2023/03/09 03:57:50;;;;;;;21.30;10.25;;;;;;;;;;5054254;28;20028;-73
2023/03/09 04:00:19;;;;;;;21.92;10.75;;;;;;;;;;5054168;28;20501;-73
2023/03/09 04:02:45;;;;;;;17.23;9.32;;;;;;;;;;5053917;28;20028;-71
2023/03/09 04:05:11;;;;;;;19.35;9.63;;;;;;;;;;5054041;28;20029;-72
2023/03/09 04:07:37;;;;;;;21.70;9.80;;;;;;;;;;5053851;28;20057;-72
2023/03/09 04:10:03;;;;;;;17.48;9.27;;;;;;;;;;5053836;28;20029;-71
2023/03/09 04:12:29;;;;;;;19.50;9.90;;;;;;;;;;5053633;28;20056;-73
2023/03/09 04:14:55;;;;;;;21.23;9.50;;;;;;;;;;5053885;28;20103;-71
2023/03/09 04:17:22;;;;;;;20.20;9.85;;;;;;;;;;5053730;28;20033;-72
2023/03/09 04:19:48;;;;;;;16.65;9.68;;;;;;;;;;5053666;28;20136;-71
2023/03/09 04:22:14;;;;;;;23.27;10.70;;;;;;;;;;5052387;28;20079;-72
2023/03/09 04:24:40;;;;;;;20.70;10.65;;;;;;;;;;5053799;28;20028;-71
2023/03/09 04:27:06;;;;;;;21.38;10.70;;;;;;;;;;5051896;28;20443;-71
2023/03/09 04:29:32;;;;;;;24.92;12.35;;;;;;;;;;5053289;28;20116;-71
2023/03/09 04:31:58;;;;;;;20.73;10.50;;;;;;;;;;5053413;28;20031;-72
2023/03/09 04:34:24;;;;;;;24.35;11.15;;;;;;;;;;5053662;28;20078;-73
2023/03/09 04:36:50;;;;;;;19.75;10.52;;;;;;;;;;5053532;28;20104;-72
2023/03/09 04:39:16;;;;;;;21.10;11.05;;;;;;;;;;5053597;28;20055;-71
2023/03/09 04:41:42;;;;;;;24.55;11.65;;;;;;;;;;5053690;28;20527;-72
2023/03/09 04:44:08;;;;;;;18.45;10.80;;;;;;;;;;5053310;28;20044;-72
2023/03/09 04:46:34;;;;;;;19.98;10.80;;;;;;;;;;5053318;28;20494;-73
2023/03/09 04:49:00;;;;;;;21.48;11.60;;;;;;;;;;5051451;28;20040;-75
2023/03/09 04:51:26;;;;;;;24.67;12.02;;;;;;;;;;5049972;28;20561;-75
2023/03/09 04:53:52;;;;;;;24.90;11.80;;;;;;;;;;5051404;28;20037;-73
2023/03/09 04:56:18;;;;;;;23.48;12.13;;;;;;;;;;5052843;28;20474;-73
2023/03/09 04:58:44;;;;;;;19.23;10.85;;;;;;;;;;5050696;28;20033;-74
2023/03/09 05:01:10;;;;;;;26.42;11.52;;;;;;;;;;5056675;28;20021;-75
2023/03/09 05:03:36;;;;;;;21.35;11.45;;;;;;;;;;5059533;28;20033;-74
2023/03/09 05:06:02;;;;;;;21.05;11.68;;;;;;;;;;5056579;28;20067;-73
2023/03/09 05:08:28;;;;;;;24.90;10.80;;;;;;;;;;5054289;28;20426;-72
2023/03/09 05:10:54;;;;;;;29.38;11.55;;;;;;;;;;5057148;28;20021;-73
2023/03/09 05:13:20;;;;;;;23.10;11.85;;;;;;;;;;5057121;28;20025;-72
2023/03/09 05:15:47;;;;;;;24.70;11.95;;;;;;;;;;5057792;28;20052;-72
2023/03/09 05:18:13;;;;;;;24.48;12.82;;;;;;;;;;5056283;28;20052;-73
2023/03/09 05:20:39;;;;;;;20.23;11.85;;;;;;;;;;5054706;28;20032;-73
2023/03/09 05:23:05;;;;;;;21.50;11.68;;;;;;;;;;5052978;28;20538;-74
2023/03/09 05:25:31;;;;;;;26.20;12.52;;;;;;;;;;5052455;28;20506;-74
2023/03/09 05:27:57;;;;;;;22.67;12.25;;;;;;;;;;5052609;28;20040;-75
2023/03/09 05:30:23;;;;;;;22.85;12.73;;;;;;;;;;5053044;28;20029;-74
2023/03/09 05:32:50;;;;;;;21.83;11.70;;;;;;;;;;5052979;28;20091;-74
2023/03/09 05:35:16;;;;;;;18.95;11.30;;;;;;;;;;5052799;28;20386;-72
2023/03/09 05:37:43;;;;;;;22.10;11.88;;;;;;;;;;5052191;28;20536;-71
2023/03/09 05:40:10;;;;;;;22.52;11.93;;;;;;;;;;5052322;28;20474;-73
2023/03/09 05:42:36;;;;;;;24.42;12.40;;;;;;;;;;5049428;28;20029;-72
2023/03/09 05:45:03;;;;;;;23.13;12.30;;;;;;;;;;5052055;28;20507;-72
2023/03/09 05:47:29;;;;;;;21.30;11.63;;;;;;;;;;5051741;28;20498;-75
2023/03/09 05:49:55;;;;;;;23.05;12.43;;;;;;;;;;5049599;28;20025;-73
2023/03/09 05:52:21;;;;;;;20.08;12.65;;;;;;;;;;5052095;28;20055;-73
2023/03/09 05:54:47;;;;;;;20.80;11.52;;;;;;;;;;5053620;28;20056;-71
2023/03/09 05:57:14;;;;;;;22.60;12.63;;;;;;;;;;5052554;28;20031;-72
2023/03/09 05:59:40;;;;;;;21.17;11.90;;;;;;;;;;5052142;28;20024;-71
2023/03/09 06:02:06;;;;;;;30.52;14.90;;;;;;;;;;5051648;28;20020;-72
2023/03/09 06:04:32;;;;;;;20.27;11.20;;;;;;;;;;5052372;28;20033;-72
2023/03/09 06:06:58;;;;;;;26.23;13.52;;;;;;;;;;5052281;28;20049;-72
2023/03/09 06:09:25;;;;;;;29.45;15.07;;;;;;;;;;5051816;28;20122;-72
2023/03/09 06:11:51;;;;;;;26.17;13.27;;;;;;;;;;5051318;28;20033;-73
2023/03/09 06:14:17;;;;;;;26.67;12.35;;;;;;;;;;5051652;28;20041;-71
2023/03/09 06:16:43;;;;;;;27.75;12.68;;;;;;;;;;5050954;28;20020;-75
2023/03/09 06:19:09;;;;;;;21.67;11.85;;;;;;;;;;5051429;28;20036;-75
2023/03/09 06:21:36;;;;;;;26.77;12.95;;;;;;;;;;5051517;28;20045;-73
2023/03/09 06:24:02;;;;;;;21.15;12.60;;;;;;;;;;5051546;28;20029;-72
2023/03/09 06:26:28;;;;;;;24.23;12.55;;;;;;;;;;5047031;28;20398;-72
2023/03/09 06:28:54;;;;;;;24.70;13.25;;;;;;;;;;5045470;28;20021;-73
2023/03/09 06:31:20;;;;;;;23.75;12.50;;;;;;;;;;5051119;28;20025;-73
2023/03/09 06:33:46;;;;;;;20.25;12.50;;;;;;;;;;5050946;28;20475;-71
2023/03/09 06:36:13;;;;;;;23.10;12.25;;;;;;;;;;5047457;28;20025;-71
2023/03/09 06:38:39;;;;;;;22.90;12.45;;;;;;;;;;5045644;28;20499;-72
2023/03/09 06:41:05;;;;;;;35.15;13.18;;;;;;;;;;5051969;28;20107;-73
2023/03/09 06:43:31;;;;;;;41.65;14.07;;;;;;;;;;5045550;28;20437;-73
2023/03/09 06:45:57;;;;;;;38.65;13.57;;;;;;;;;;5043965;28;20123;-74
2023/03/09 06:48:23;;;;;;;30.38;12.48;;;;;;;;;;5050445;28;20139;-74
2023/03/09 06:50:49;;;;;;;27.52;12.93;;;;;;;;;;5050792;28;20056;-74
2023/03/09 06:53:15;;;;;;;28.05;13.00;;;;;;;;;;5050806;28;20032;-74
2023/03/09 06:55:42;;;;;;;24.23;13.15;;;;;;;;;;5051424;28;20028;-73
2023/03/09 06:58:08;;;;;;;27.40;13.15;;;;;;;;;;5046273;28;20152;-74
2023/03/09 07:00:40;;;;;;;24.48;13.38;;;;;;;;;;5043549;28;20021;-76
2023/03/09 07:03:08;;;;;;;26.77;12.85;;;;;;;;;;5050326;28;20540;-72
2023/03/09 07:05:34;;;;;;;28.35;13.05;;;;;;;;;;5048574;28;20363;-73
2023/03/09 07:08:00;;;;;;;25.52;13.25;;;;;;;;;;5050998;28;20074;-72
2023/03/09 07:10:26;;;;;;;25.00;13.90;;;;;;;;;;5050631;28;20370;-74
2023/03/09 07:12:52;;;;;;;31.50;14.55;;;;;;;;;;5050497;28;20040;-72
2023/03/09 07:15:18;;;;;;;25.63;12.95;;;;;;;;;;5050747;28;20067;-70
2023/03/09 07:17:44;;;;;;;28.77;14.23;;;;;;;;;;5050232;28;20563;-76
2023/03/09 07:20:11;;;;;;;26.88;13.93;;;;;;;;;;5046894;28;20029;-74
2023/03/09 07:22:37;;;;;;;27.40;14.18;;;;;;;;;;5052826;28;20033;-74
2023/03/09 07:25:04;;;;;;;25.80;13.02;;;;;;;;;;5054577;28;20025;-74
2023/03/09 07:27:30;;;;;;;27.35;13.55;;;;;;;;;;5054521;28;20021;-75
2023/03/09 07:29:57;;;;;;;29.00;14.50;;;;;;;;;;5050455;28;20025;-72
2023/03/09 07:32:23;;;;;;;30.83;13.38;;;;;;;;;;5054065;28;20112;-74
2023/03/09 07:34:49;;;;;;;26.05;14.52;;;;;;;;;;5054490;28;20063;-74
2023/03/09 07:37:15;;;;;;;25.50;14.55;;;;;;;;;;5053665;28;20021;-72
2023/03/09 07:39:41;;;;;;;28.50;14.10;;;;;;;;;;5051979;28;20073;-73
2023/03/09 07:42:07;;;;;;;27.02;14.63;;;;;;;;;;5054513;28;20100;-74
2023/03/09 07:44:33;;;;;;;27.45;14.35;;;;;;;;;;5055059;28;20037;-75
2023/03/09 07:46:59;;;;;;;31.33;14.40;;;;;;;;;;5055788;28;20032;-76
2023/03/09 07:49:25;;;;;;;34.70;15.48;;;;;;;;;;5056359;28;20037;-76
2023/03/09 07:51:51;;;;;;;29.92;14.43;;;;;;;;;;5055367;28;20025;-74
2023/03/09 07:54:17;;;;;;;29.98;14.40;;;;;;;;;;5055378;28;20111;-74
2023/03/09 07:56:47;;;;;;;25.95;14.35;;;;;;;;;;5055792;28;20151;-74
2023/03/09 07:59:15;;;;;;;28.35;14.20;;;;;;;;;;5055371;28;20373;-75
2023/03/09 08:01:41;;;;;;;30.60;14.57;;;;;;;;;;5055435;28;20072;-75
2023/03/09 08:04:07;;;;;;;30.30;14.02;;;;;;;;;;5054009;28;20103;-74
2023/03/09 08:06:33;;;;;;;27.60;14.32;;;;;;;;;;5052772;28;20033;-74
2023/03/09 08:08:59;;;;;;;25.98;13.90;;;;;;;;;;5053583;28;20035;-73
2023/03/09 08:11:25;;;;;;;25.27;12.70;;;;;;;;;;5052878;28;20030;-73
2023/03/09 08:13:51;;;;;;;32.15;13.82;;;;;;;;;;5053395;28;20377;-74
2023/03/09 08:16:17;;;;;;;30.70;13.43;;;;;;;;;;5050213;28;20367;-73
2023/03/09 08:18:44;;;;;;;23.35;13.45;;;;;;;;;;5053176;28;20032;-75
2023/03/09 08:21:12;;;;;;;27.40;13.13;;;;;;;;;;5054077;28;20452;-74
2023/03/09 08:23:39;;;;;;;27.80;13.75;;;;;;;;;;5046656;28;20033;-74
2023/03/09 08:26:06;;;;;;;24.85;13.48;;;;;;;;;;5054664;28;20112;-78
2023/03/09 08:28:32;;;;;;;24.58;13.65;;;;;;;;;;5051891;28;20116;-76
2023/03/09 08:30:59;;;;;;;28.23;13.27;;;;;;;;;;5053429;28;20051;-75
2023/03/09 08:33:25;;;;;;;72.72;35.17;;;;;;;;;;5048694;28;20033;-76
2023/03/09 08:35:51;;;;;;;26.33;13.75;;;;;;;;;;5052791;28;20032;-74
2023/03/09 08:38:17;;;;;;;23.45;13.20;;;;;;;;;;5052266;28;20025;-72
2023/03/09 08:40:43;;;;;;;30.33;13.18;;;;;;;;;;5052060;28;20111;-74
2023/03/09 08:43:09;;;;;;;28.25;12.95;;;;;;;;;;5052236;28;20025;-73
2023/03/09 08:45:35;;;;;;;27.15;13.98;;;;;;;;;;5052450;28;20048;-74
2023/03/09 08:48:02;;;;;;;22.60;12.15;;;;;;;;;;5052217;28;20025;-74
2023/03/09 08:50:29;;;;;;;22.58;12.73;;;;;;;;;;5052517;28;20043;-74
2023/03/09 08:52:56;;;;;;;25.20;11.65;;;;;;;;;;5052933;28;20041;-75
2023/03/09 08:55:22;;;;;;;23.65;11.88;;;7.30;99.90;;;;;;5053054;28;20031;-73
2023/03/09 08:57:48;;;;;;;26.15;11.63;;;9.10;1.00;;;;;;5053304;28;20108;-75
2023/03/09 09:00:15;;;;;;;20.67;10.95;;;9.50;99.90;;;;;;5053439;28;20116;-76
2023/03/09 09:02:41;;;;;;;26.23;11.20;;;9.90;99.90;;;;;;5052742;28;20044;-76
2023/03/09 09:05:07;;;;;;;20.02;10.10;;;;;;;;;;5053414;28;20502;-75
2023/03/09 09:07:34;;;;;;;19.05;9.70;;;;;;;;;;5054029;28;20437;-74
2023/03/09 09:10:00;;;;;;;17.05;9.55;;;;;;;;;;5053279;28;20024;-72
2023/03/09 09:12:28;;;;;;;19.67;10.00;;;;;;;;;;5053584;28;20474;-72
2023/03/09 09:14:54;;;;;;;20.25;9.65;;;;;;;;;;5052802;28;20013;-71
2023/03/09 09:17:20;;;;;;;18.23;10.63;;;;;;;;;;5052621;28;20025;-71
2023/03/09 09:19:46;;;;;;;19.95;9.52;;;;;;;;;;5049893;28;20028;-72
2023/03/09 09:22:13;;;;;;;18.77;8.98;;;;;;;;;;5052230;28;20077;-73
2023/03/09 09:24:39;;;;;;;18.10;10.65;;;;;;;;;;5048350;28;20737;-70
2023/03/09 09:27:09;;;;;;;22.23;10.25;;;;;;;;;;5054468;28;20029;-73
2023/03/09 09:29:36;;;;;;;21.00;10.20;;;;;;;;;;5046629;28;20033;-72
2023/03/09 09:32:03;;;;;;;19.38;9.38;;;;;;;;;;5055016;28;20193;-71
2023/03/09 09:34:31;;;;;;;17.63;10.00;;;;;;;;;;5048747;28;20470;-71
2023/03/09 09:36:57;;;;;;;21.33;9.93;;;;;;;;;;5052033;28;20050;-72
2023/03/09 09:39:23;;;;;;;16.10;9.35;;;;;;;;;;5045907;28;20046;-71
2023/03/09 09:41:52;;;;;;;15.48;8.65;;;;;;;;;;5054588;28;20524;-72
2023/03/09 09:44:21;;;;;;;16.65;10.20;;;;;;;;;;5048767;28;20033;-71
2023/03/09 09:46:47;;;;;;;16.38;8.65;;;;;;;;;;5051565;28;20384;-71
2023/03/09 09:49:20;;;;;;;18.23;8.75;;;;;;;;;;5048297;28;20028;-73
2023/03/09 09:51:55;;;;;;;16.08;8.32;;;;;;;;;;5053308;28;20108;-72
2023/03/09 09:54:34;;;;;;;12.13;7.20;;;;;;;;;;5049395;28;20128;-73
2023/03/09 09:57:02;;;;;;;16.60;8.75;;;;;;;;;;5046851;28;20037;-71
2023/03/09 09:59:42;;;;;;;18.40;7.60;;;;;;;;;;5047638;28;20025;-72
2023/03/09 10:02:08;;;;;;;14.55;7.28;;;;;;;;;;5052834;28;20033;-72
2023/03/09 10:04:37;;;;;;;11.38;7.10;;;;;;;;;;5051417;28;20033;-72
2023/03/09 10:07:23;;;;;;;12.02;7.43;;;;;;;;;;5051671;28;20072;-72
2023/03/09 10:09:54;;;;;;;11.75;7.05;;;;;;;;;;5052134;28;20029;-75
2023/03/09 10:12:21;;;;;;;15.18;7.95;;;;;;;;;;5051652;28;20478;-75
2023/03/09 10:14:54;;;;;;;14.23;7.40;;;;;;;;;;5051913;28;20052;-74
2023/03/09 10:17:29;;;;;;;14.23;6.75;;;;;;;;;;5052002;28;20090;-73
2023/03/09 10:19:57;;;;;;;12.32;7.03;;;;;;;;;;5051878;28;20021;-72
2023/03/09 10:22:25;;;;;;;13.88;7.55;;;;;;;;;;5049063;28;20067;-72
2023/03/09 10:24:52;;;;;;;15.05;7.47;;;;;;;;;;5047273;28;20013;-72
2023/03/09 10:27:18;;;;;;;16.27;7.55;;;;;;;;;;5050188;28;20013;-72
2023/03/09 10:29:48;;;;;;;20.60;7.50;;;;;;;;;;5047979;28;20500;-71
2023/03/09 10:32:18;;;;;;;13.10;7.57;;;;;;;;;;5049921;28;20056;-76
2023/03/09 10:34:52;;;;;;;13.68;7.38;;;;;;;;;;5048321;28;20052;-72
2023/03/09 10:37:21;;;;;;;13.25;7.80;;;;;;;;;;5046736;28;20099;-73
2023/03/09 10:39:47;;;;;;;14.07;7.10;;;;;;;;;;5050916;28;20025;-71
2023/03/09 10:42:19;;;;;;;17.80;8.10;;;;;;;;;;5051612;28;20029;-71
2023/03/09 10:44:49;;;;;;;15.52;8.30;;;;;;;;;;5052237;28;20039;-74
2023/03/09 10:47:15;;;;;;;18.10;11.38;;;;;;;;;;5051787;28;20121;-73
2023/03/09 10:49:41;;;;;;;17.05;8.95;;;;;;;;;;5051391;28;20044;-73
2023/03/09 10:52:16;;;;;;;16.42;9.82;;;;;;;;;;5051209;28;20482;-71
2023/03/09 10:54:42;;;;;;;16.27;8.23;;;;;;;;;;5051470;28;20032;-72
2023/03/09 10:57:22;;;;;;;13.07;8.27;;;;;;;;;;5055040;28;20501;-71
2023/03/09 10:59:55;;;;;;;15.27;8.23;;;;;;;;;;5055299;28;20029;-71
2023/03/09 11:02:27;;;;;;;12.35;7.85;;;;;;;;;;5054904;28;20025;-70
2023/03/09 11:04:53;;;;;;;15.48;7.80;;;;;;;;;;5055809;28;20052;-72
2023/03/09 11:07:23;;;;;;;12.48;6.70;;;;;;;;;;5057784;28;20052;-72
2023/03/09 11:09:52;;;;;;;14.65;6.85;;;;;;;;;;5055452;28;20029;-72
2023/03/09 11:12:21;;;;;;;13.20;6.20;;;;;;;;;;5057052;28;20025;-72
2023/03/09 11:14:50;;;;;;;10.43;5.63;;;;;;;;;;5055645;28;20090;-72
2023/03/09 11:17:25;;;;;;;7.22;5.00;;;;;;;;;;5055379;28;20060;-70
2023/03/09 11:20:10;;;;;;;12.10;6.20;;;;;;;;;;5054411;28;20035;-71
2023/03/09 11:22:37;;;;;;;14.48;6.10;;;;;;;;;;5054489;28;20083;-72
2023/03/09 11:25:04;;;;;;;10.68;6.15;;;;;;;;;;5054224;28;20104;-72
2023/03/09 11:27:32;;;;;;;10.18;5.28;;;;;;;;;;5054034;28;20036;-72
2023/03/09 11:30:01;;;;;;;6.75;5.00;;;;;;;;;;5053945;28;20024;-73
2023/03/09 11:32:27;;;;;;;9.52;5.28;;;;;;;;;;5053420;28;20036;-72
2023/03/09 11:34:53;;;;;;;11.40;5.38;;;;;;;;;;5053750;28;20052;-72
2023/03/09 11:37:22;;;;;;;13.00;6.10;;;;;;;;;;5053932;28;20106;-74
2023/03/09 11:39:50;;;;;;;9.07;5.40;;;;;;;;;;5053784;28;20017;-72
2023/03/09 11:42:18;;;;;;;10.50;5.35;;;;;;;;;;5053455;28;20025;-73
2023/03/09 11:44:45;;;;;;;7.53;5.35;;;;;;;;;;5053613;28;20514;-73
2023/03/09 11:47:26;;;;;;;10.82;5.07;;;;;;;;;;5054081;28;20100;-73
2023/03/09 11:49:54;;;;;;;9.15;5.53;;;;;;;;;;5053157;28;20094;-73
2023/03/09 11:52:26;;;;;;;11.85;5.53;;;;;;;;;;5053495;28;20033;-71
2023/03/09 11:54:53;;;;;;;9.63;6.00;;;;;;;;;;5053530;28;20037;-71
2023/03/09 11:57:20;;;;;;;7.50;5.20;;;;;;;;;;5053241;28;20025;-71
2023/03/09 11:59:55;;;;;;;8.05;5.38;;;;;;;;;;5053487;28;20100;-73
2023/03/09 12:02:32;;;;;;;7.00;5.15;;;;;;;;;;5053351;28;20103;-73
2023/03/09 12:04:59;;;;;;;10.55;5.47;;;;;;;;;;5053568;28;20029;-72
2023/03/09 12:07:29;;;;;;;9.70;5.63;;;;;;;;;;5053100;28;20025;-73
2023/03/09 12:09:55;;;;;;;9.85;4.95;;;;;;;;;;5052788;28;20532;-72
2023/03/09 12:12:24;;;;;;;13.02;6.32;;;;;;;;;;5052489;28;20032;-71
2023/03/09 12:14:52;;;;;;;9.23;6.47;;;;;;;;;;5052856;28;20033;-71
2023/03/09 12:17:23;;;;;;;9.20;5.53;;;;;;;;;;5052836;28;20109;-71
2023/03/09 12:19:50;;;;;;;7.95;4.80;;;;;;;;;;5053009;28;20421;-73
2023/03/09 12:22:22;;;;;;;8.57;5.68;;;;;;;;;;5052386;28;20049;-71
2023/03/09 12:24:57;;;;;;;9.00;5.68;;;;;;;;;;5052684;28;20103;-73
2023/03/09 12:27:24;;;;;;;8.65;5.50;;;;;;;;;;5052525;28;20033;-72
2023/03/09 12:30:08;;;;;;;8.88;5.60;;;;;;;;;;5052948;28;20180;-73
2023/03/09 12:32:39;;;;;;;9.48;5.60;;;;;;;;;;5052473;28;20052;-73
2023/03/09 12:35:10;;;;;;;10.73;5.53;;;;;;;;;;5052752;28;20025;-73
2023/03/09 12:37:36;;;;;;;9.32;6.20;;;;;;;;;;5052989;28;20159;-77
2023/03/09 12:40:19;;;;;;;10.05;5.65;;;;;;;;;;5053256;28;20471;-74
2023/03/09 12:42:46;;;;;;;7.90;5.35;;;;;;;;;;5052291;28;20196;-72
2023/03/09 12:45:12;;;;;;;11.20;6.30;;;;;;;;;;5052466;28;20127;-74
2023/03/09 12:47:41;;;;;;;10.23;6.20;;;;;;;;;;5052596;28;20032;-73
2023/03/09 12:50:25;;;;;;;9.82;6.05;;;;;;;;;;5052299;28;20059;-74
2023/03/09 12:53:03;;;;;;;12.95;6.13;;;;;;;;;;5052275;28;20028;-73
2023/03/09 12:55:43;;;;;;;12.98;6.88;;;;;;;;;;5053625;28;20052;-73
2023/03/09 12:58:21;;;;;;;13.35;6.18;;;;;;;;;;5054367;28;20071;-73
2023/03/09 13:00:53;;;;;;;14.45;8.18;;;;;;;;;;5052566;28;20021;-73
2023/03/09 13:03:22;;;;;;;18.60;9.13;;;;;;;;;;5055810;28;20084;-74
2023/03/09 13:05:52;;;;;;;14.75;6.55;;;;;;;;;;5051628;28;20033;-72
2023/03/09 13:08:37;;;;;;;7.65;5.97;;;;;;;;;;5051673;28;20025;-73
2023/03/09 13:11:03;;;;;;;;;;;;;;;;;;5046900;28;20032;-73
2023/03/09 13:13:40;;;;;;;12.10;6.63;;;;;;;;;;5050362;28;19935;-73
2023/03/09 13:16:25;;;;;;;11.77;6.75;;;;;;;;;;5051290;28;20028;-74
2023/03/09 13:19:10;;;;;;;13.60;6.97;;;;;;;;;;5043398;28;20021;-74
2023/03/09 13:21:42;;;;;;;12.98;6.93;;;;;;;;;;5050237;28;20037;-73
2023/03/09 13:24:13;;;;;;;13.10;6.40;;;;;;;;;;5040886;28;20026;-73
2023/03/09 13:26:42;;;;;;;11.00;6.55;;;;;;;;;;5043087;28;20034;-74
2023/03/09 13:29:14;;;;;;;12.30;7.13;;;;;;;;;;5044461;28;20025;-74
2023/03/09 13:31:41;;;;;;;10.65;6.68;;;;;;;;;;5050009;28;20478;-73
2023/03/09 13:34:11;;;;;;;11.13;7.07;;;;;;;;;;5041057;28;20378;-73
2023/03/09 13:36:37;;;;;;;15.45;7.85;;;;;;;;;;5042526;28;20029;-72
2023/03/09 13:39:05;;;;;;;14.13;7.25;;;;;;;;;;5044281;28;20021;-73
2023/03/09 13:41:31;;;;;;;15.55;6.95;;;;;;;;;;5051495;28;20086;-72
2023/03/09 13:43:58;;;;;;;11.13;6.75;;;;;;;;;;5040925;28;20039;-72
2023/03/09 13:46:45;;;;;;;11.77;7.32;;;;;;;;;;5040025;28;20061;-73
2023/03/09 13:49:20;;;;;;;12.48;6.75;;;;;;;;;;5051476;28;20028;-73
2023/03/09 13:51:48;;;;;;;;;;;;;;;;;;5049343;28;20033;-72
2023/03/09 13:54:23;;;;;;;17.13;6.57;;;;;;;;;;5051924;28;19958;-72
2023/03/09 13:56:49;;;;;;;;;;;;;;;;;;5050944;28;20509;-71
2023/03/09 13:59:16;;;;;;;16.05;7.43;;;;;;;;;;5046665;28;19909;-73
2023/03/09 14:01:42;;;;;;;13.52;7.20;;;;;;;;;;5049614;28;20025;-73
2023/03/09 14:04:16;;;;;;;10.00;6.57;;;;;;;;;;5046746;28;20356;-73
2023/03/09 14:06:42;;;;;;;11.80;7.17;;;;;;;;;;5052048;28;20029;-74
2023/03/09 14:09:34;;;;;;;12.85;7.10;;;;;;;;;;5052425;28;20259;-72
2023/03/09 14:12:01;;;;;;;16.15;7.60;;;;;;;;;;5051566;28;20044;-71
2023/03/09 14:14:28;;;;;;;12.38;6.57;;;;;;;;;;5052124;28;20553;-73
2023/03/09 14:16:54;;;;;;;14.75;7.82;;;;;;;;;;5051891;28;20536;-72
2023/03/09 14:19:22;;;;;;;18.30;8.07;;;;;;;;;;5050223;28;20371;-72
2023/03/09 14:21:52;;;;;;;14.60;7.60;;;;;;;;;;5051709;28;20021;-71
2023/03/09 14:24:17;;;;;;;14.45;7.13;;;;;;;;;;5051493;28;20364;-70
2023/03/09 14:26:45;;;;;;;12.63;7.00;;;;;;;;;;5051702;28;20067;-71
2023/03/09 14:29:16;;;;;;;16.08;8.52;;;;;;;;;;5052650;28;20485;-72
2023/03/09 14:31:43;;;;;;;13.23;7.40;;;;;;;;;;5051573;28;20075;-70